createdAt,value
2019-04-21T00:01:52.194Z,7.60
2019-04-21T00:04:33.283Z,7.50
2019-04-21T00:07:08.696Z,7.60
2019-04-21T00:09:48.606Z,7.50
2019-04-21T00:12:07.564Z,7.50
2019-04-21T00:14:31.587Z,7.50
2019-04-21T00:16:58.036Z,7.60
2019-04-21T00:19:26.789Z,7.50
2019-04-21T00:22:01.688Z,7.50
2019-04-21T00:24:34.702Z,7.40
2019-04-21T00:27:12.567Z,7.40
2019-04-21T00:29:45.432Z,7.30
2019-04-21T00:32:10.005Z,7.30
2019-04-21T00:34:23.883Z,7.30
2019-04-21T00:37:04.957Z,7.30
2019-04-21T00:39:52.464Z,7.30
2019-04-21T00:42:12.963Z,7.20
2019-04-21T00:44:35.918Z,7.20
2019-04-21T00:47:08.861Z,7.20
2019-04-21T00:49:47.869Z,7.30
2019-04-21T00:52:42.696Z,7.30
2019-04-21T00:55:11.014Z,7.30
2019-04-21T00:57:33.791Z,7.20
2019-04-21T00:59:59.401Z,7.20
2019-04-21T01:02:33.041Z,7.10
2019-04-21T01:05:06.398Z,7.10
2019-04-21T01:07:34.460Z,7.10
2019-04-21T01:09:52.552Z,7.00
2019-04-21T01:12:33.118Z,6.90
2019-04-21T01:15:04.740Z,6.90
2019-04-21T01:17:28.801Z,6.80
2019-04-21T01:19:58.040Z,6.70
2019-04-21T01:22:11.396Z,6.50
2019-04-21T01:24:43.763Z,6.40
2019-04-21T01:27:18.652Z,6.50
2019-04-21T01:30:02.554Z,6.40
2019-04-21T01:32:31.272Z,6.30
2019-04-21T01:35:02.704Z,6.30
2019-04-21T01:37:39.945Z,6.20
2019-04-21T01:40:14.281Z,6.10
2019-04-21T01:42:36.944Z,6.00
2019-04-21T01:45:02.420Z,5.90
2019-04-21T01:47:26.214Z,5.80
2019-04-21T01:49:54.583Z,5.80
2019-04-21T01:52:44.161Z,5.80
2019-04-21T01:55:12.349Z,5.70
2019-04-21T01:57:42.630Z,5.70
2019-04-21T02:00:13.478Z,5.80
2019-04-21T02:02:54.457Z,5.80
2019-04-21T02:05:26.433Z,5.70
2019-04-21T02:07:53.443Z,5.60
2019-04-21T02:10:26.686Z,5.70
2019-04-21T02:12:52.530Z,5.70
2019-04-21T02:17:54.018Z,5.70
2019-04-21T02:20:18.266Z,5.60
2019-04-21T02:23:10.235Z,5.60
2019-04-21T02:25:29.700Z,5.60
2019-04-21T02:28:00.795Z,5.60
2019-04-21T02:30:55.266Z,5.60
2019-04-21T02:33:13.677Z,5.60
2019-04-21T02:35:53.530Z,5.50
2019-04-21T02:38:11.138Z,5.40
2019-04-21T02:40:46.614Z,5.30
2019-04-21T02:43:11.991Z,5.30
2019-04-21T02:45:43.331Z,5.20
2019-04-21T02:48:08.696Z,5.10
2019-04-21T02:50:42.966Z,5.10
2019-04-21T02:53:21.071Z,5.10
2019-04-21T02:55:44.758Z,5.00
2019-04-21T02:58:17.887Z,5.00
2019-04-21T03:00:59.613Z,5.00
2019-04-21T03:03:37.926Z,5.00
2019-04-21T03:06:08.341Z,4.90
2019-04-21T03:11:09.334Z,4.80
2019-04-21T03:13:41.222Z,4.70
2019-04-21T03:16:23.461Z,4.70
2019-04-21T03:18:42.111Z,4.70
2019-04-21T03:21:07.483Z,4.70
2019-04-21T03:23:53.615Z,4.80
2019-04-21T03:26:24.860Z,4.70
2019-04-21T03:28:37.048Z,4.60
2019-04-21T03:41:14.515Z,4.30
2019-04-21T03:46:08.131Z,4.10
2019-04-21T03:48:46.326Z,4.00
2019-04-21T03:51:18.929Z,3.90
2019-04-21T03:53:43.797Z,3.90
2019-04-21T03:56:14.823Z,3.90
2019-04-21T03:58:56.273Z,4.00
2019-04-21T04:01:23.980Z,3.90
2019-04-21T04:04:15.461Z,3.90
2019-04-21T04:06:36.362Z,3.90
2019-04-21T04:11:50.892Z,3.90
2019-04-21T04:19:30.075Z,3.90
2019-04-21T04:24:30.209Z,3.80
2019-04-21T04:27:02.333Z,3.80
2019-04-21T04:29:24.067Z,3.80
2019-04-21T04:31:47.435Z,3.80
2019-04-21T04:34:29.251Z,3.70
2019-04-21T04:37:07.424Z,3.60
2019-04-21T04:42:27.214Z,3.60
2019-04-21T04:47:20.462Z,3.60
2019-04-21T04:52:31.437Z,3.50
2019-04-21T04:55:03.864Z,3.50
2019-04-21T04:57:25.394Z,3.50
2019-04-21T05:00:15.732Z,3.60
2019-04-21T05:04:55.204Z,3.70
2019-04-21T05:07:25.034Z,3.70
2019-04-21T05:10:04.247Z,3.70
2019-04-21T05:12:19.410Z,3.80
2019-04-21T05:14:57.037Z,3.90
2019-04-21T05:20:03.644Z,4.00
2019-04-21T05:22:22.134Z,4.10
2019-04-21T05:24:39.041Z,4.20
2019-04-21T05:27:08.921Z,4.30
2019-04-21T05:29:56.794Z,4.50
2019-04-21T05:32:32.012Z,4.60
2019-04-21T05:35:09.493Z,4.70
2019-04-21T05:37:37.146Z,4.70
2019-04-21T05:40:00.496Z,4.90
2019-04-21T05:42:35.406Z,5.00
2019-04-21T05:45:18.527Z,5.10
2019-04-21T05:47:58.033Z,5.20
2019-04-21T05:50:19.204Z,5.40
2019-04-21T05:52:46.013Z,5.50
2019-04-21T05:55:33.492Z,5.70
2019-04-21T05:57:54.689Z,5.90
2019-04-21T06:00:48.142Z,6.00
2019-04-21T06:03:00.677Z,6.20
2019-04-21T06:05:39.147Z,6.40
2019-04-21T06:08:02.978Z,6.50
2019-04-21T06:10:36.193Z,6.70
2019-04-21T06:13:09.902Z,6.90
2019-04-21T06:15:41.485Z,7.00
2019-04-21T06:18:05.076Z,7.20
2019-04-21T06:20:36.935Z,7.20
2019-04-21T06:23:02.988Z,7.40
2019-04-21T06:28:03.600Z,7.70
2019-04-21T06:30:45.522Z,7.80
2019-04-21T06:33:09.952Z,8.00
2019-04-21T06:38:54.474Z,8.30
2019-04-21T06:41:21.327Z,8.50
2019-04-21T06:43:48.542Z,8.70
2019-04-21T06:46:20.080Z,8.90
2019-04-21T06:48:49.760Z,9.10
2019-04-21T06:51:16.733Z,9.30
2019-04-21T06:53:52.445Z,9.50
2019-04-21T06:56:17.158Z,9.80
2019-04-21T06:58:48.151Z,10.00
2019-04-21T07:01:18.055Z,10.30
2019-04-21T07:03:49.342Z,10.50
2019-04-21T07:06:12.885Z,10.80
2019-04-21T07:08:56.629Z,11.10
2019-04-21T07:11:16.913Z,11.40
2019-04-21T07:13:49.032Z,11.70
2019-04-21T07:16:19.424Z,12.10
2019-04-21T07:19:01.140Z,12.50
2019-04-21T07:21:21.960Z,13.00
2019-04-21T07:23:57.201Z,13.40
2019-04-21T07:26:28.290Z,13.70
2019-04-21T07:29:04.067Z,14.10
2019-04-21T07:31:25.300Z,14.50
2019-04-21T07:34:01.589Z,14.80
2019-04-21T07:36:35.466Z,15.20
2019-04-21T07:38:54.373Z,15.60
2019-04-21T07:41:18.323Z,16.20
2019-04-21T07:43:57.581Z,16.60
2019-04-21T07:46:25.690Z,16.90
2019-04-21T07:49:11.148Z,17.30
2019-04-21T07:51:42.329Z,17.70
2019-04-21T07:54:20.179Z,18.10
2019-04-21T07:56:27.419Z,18.30
2019-04-21T07:59:18.899Z,18.70
2019-04-21T08:01:48.376Z,19.20
2019-04-21T08:04:31.991Z,19.50
2019-04-21T08:06:40.795Z,19.80
2019-04-21T08:09:12.265Z,20.10
2019-04-21T08:11:35.572Z,20.20
2019-04-21T08:14:17.783Z,20.40
2019-04-21T08:16:46.064Z,20.40
2019-04-21T08:19:13.416Z,20.60
2019-04-21T08:21:51.248Z,20.80
2019-04-21T08:24:18.264Z,21.20
2019-04-21T08:26:42.212Z,21.50
2019-04-21T08:29:25.706Z,21.50
2019-04-21T08:32:06.845Z,21.50
2019-04-21T08:36:44.718Z,21.40
2019-04-21T08:39:13.501Z,21.70
2019-04-21T08:41:43.946Z,21.80
2019-04-21T08:44:21.386Z,22.10
2019-04-21T08:46:46.033Z,22.60
2019-04-21T08:49:15.001Z,23.00
2019-04-21T08:51:51.308Z,23.40
2019-04-21T08:54:22.026Z,23.50
2019-04-21T08:56:49.713Z,23.60
2019-04-21T08:59:36.530Z,23.80
2019-04-21T09:02:07.662Z,24.00
2019-04-21T09:04:33.896Z,24.20
2019-04-21T09:07:25.870Z,24.50
2019-04-21T09:09:44.484Z,24.70
2019-04-21T09:12:04.285Z,24.60
2019-04-21T09:14:36.397Z,24.70
2019-04-21T09:17:01.670Z,25.10
2019-04-21T09:22:05.856Z,25.20
2019-04-21T09:24:42.192Z,25.10
2019-04-21T09:27:11.232Z,25.40
2019-04-21T09:29:31.017Z,25.70
2019-04-21T09:31:54.482Z,25.80
2019-04-21T09:34:24.932Z,26.20
2019-04-21T09:36:54.800Z,26.20
2019-04-21T09:39:25.561Z,26.30
2019-04-21T09:41:54.452Z,26.40
2019-04-21T09:44:28.614Z,26.80
2019-04-21T09:46:54.888Z,27.20
2019-04-21T09:49:25.969Z,27.70
2019-04-21T09:51:52.982Z,27.90
2019-04-21T09:54:27.782Z,28.00
2019-04-21T09:56:58.511Z,27.90
2019-04-21T09:59:28.440Z,28.20
2019-04-21T10:01:58.885Z,28.20
2019-04-21T10:04:23.182Z,28.00
2019-04-21T10:06:52.021Z,27.90
2019-04-21T10:09:21.806Z,28.30
2019-04-21T10:11:50.608Z,28.60
2019-04-21T10:14:19.760Z,29.00
2019-04-21T10:16:54.093Z,29.30
2019-04-21T10:19:23.566Z,29.40
2019-04-21T10:21:52.114Z,29.20
2019-04-21T10:24:20.639Z,28.80
2019-04-21T10:26:49.470Z,28.60
2019-04-21T10:29:24.306Z,28.80
2019-04-21T10:31:48.212Z,29.00
2019-04-21T10:34:17.024Z,29.20
2019-04-21T10:36:47.049Z,28.80
2019-04-21T10:39:15.859Z,28.50
2019-04-21T10:41:45.802Z,28.40
2019-04-21T10:44:14.618Z,28.70
2019-04-21T10:46:45.705Z,28.70
2019-04-21T10:49:14.705Z,28.60
2019-04-21T10:51:43.496Z,28.60
2019-04-21T10:54:11.939Z,28.80
2019-04-21T10:56:43.874Z,28.90
2019-04-21T10:59:12.018Z,28.70
2019-04-21T11:01:41.310Z,28.90
2019-04-21T11:04:24.889Z,29.30
2019-04-21T11:06:48.593Z,29.10
2019-04-21T11:09:17.876Z,29.20
2019-04-21T11:11:49.550Z,29.20
2019-04-21T11:14:17.838Z,29.10
2019-04-21T11:16:49.049Z,28.70
2019-04-21T11:19:17.910Z,28.70
2019-04-21T11:21:47.076Z,28.50
2019-04-21T11:24:16.256Z,28.70
2019-04-21T11:26:45.881Z,28.70
2019-04-21T11:29:14.969Z,28.60
2019-04-21T11:31:45.241Z,28.60
2019-04-21T11:34:15.362Z,28.50
2019-04-21T11:36:44.059Z,28.30
2019-04-21T11:39:27.238Z,28.20
2019-04-21T11:41:45.763Z,28.40
2019-04-21T11:44:14.407Z,28.60
2019-04-21T11:46:42.940Z,28.80
2019-04-21T11:49:12.472Z,28.90
2019-04-21T11:51:42.699Z,28.70
2019-04-21T11:54:11.295Z,28.70
2019-04-21T11:56:40.979Z,28.80
2019-04-21T11:59:09.969Z,28.60
2019-04-21T12:01:39.423Z,28.70
2019-04-21T12:04:09.632Z,28.90
2019-04-21T12:06:43.610Z,28.90
2019-04-21T12:09:10.022Z,28.80
2019-04-21T12:11:39.218Z,28.80
2019-04-21T12:14:08.022Z,29.20
2019-04-21T12:16:37.108Z,29.40
2019-04-21T12:19:07.065Z,29.40
2019-04-21T12:21:50.542Z,29.80
2019-04-21T12:24:06.952Z,29.90
2019-04-21T12:26:36.011Z,29.80
2019-04-21T12:29:05.901Z,29.70
2019-04-21T12:31:47.975Z,29.80
2019-04-21T12:34:25.939Z,29.90
2019-04-21T12:36:55.009Z,30.20
2019-04-21T12:39:24.982Z,30.40
2019-04-21T12:41:54.288Z,30.20
2019-04-21T12:44:22.894Z,30.30
2019-04-21T12:46:51.970Z,30.60
2019-04-21T12:49:20.543Z,30.90
2019-04-21T12:51:48.988Z,31.20
2019-04-21T12:54:17.591Z,31.30
2019-04-21T12:56:47.536Z,31.00
2019-04-21T12:59:16.938Z,30.80
2019-04-21T13:01:45.503Z,30.90
2019-04-21T13:04:14.016Z,31.20
2019-04-21T13:06:43.587Z,31.10
2019-04-21T13:09:14.959Z,31.20
2019-04-21T13:11:43.398Z,31.20
2019-04-21T13:14:13.573Z,31.30
2019-04-21T13:16:43.397Z,31.60
2019-04-21T13:19:13.366Z,32.00
2019-04-21T13:21:42.376Z,32.90
2019-04-21T13:24:11.641Z,33.30
2019-04-21T13:26:48.413Z,33.70
2019-04-21T13:29:10.499Z,34.20
2019-04-21T13:31:40.095Z,35.10
2019-04-21T13:34:10.321Z,35.50
2019-04-21T13:36:39.361Z,35.50
2019-04-21T13:39:53.636Z,36.20
2019-04-21T13:42:08.769Z,37.10
2019-04-21T13:44:27.074Z,38.00
2019-04-21T13:46:56.569Z,38.20
2019-04-21T13:49:25.743Z,39.00
2019-04-21T13:51:54.277Z,39.80
2019-04-21T13:54:22.806Z,41.00
2019-04-21T13:56:52.407Z,41.90
2019-04-21T13:59:22.470Z,42.10
2019-04-21T14:01:52.005Z,42.10
2019-04-21T14:04:20.633Z,42.50
2019-04-21T14:06:50.084Z,43.00
2019-04-21T14:09:19.930Z,43.60
2019-04-21T14:11:49.410Z,43.80
2019-04-21T14:14:18.731Z,44.90
2019-04-21T14:16:47.974Z,44.90
2019-04-21T14:19:17.275Z,45.40
2019-04-21T14:21:49.112Z,45.50
2019-04-21T14:24:17.202Z,45.60
2019-04-21T14:26:45.908Z,45.70
2019-04-21T14:29:15.465Z,45.30
2019-04-21T14:31:44.356Z,44.90
2019-04-21T14:34:14.325Z,44.70
2019-04-21T14:36:44.456Z,44.90
2019-04-21T14:39:14.494Z,45.30
2019-04-21T14:41:44.265Z,44.80
2019-04-21T14:44:13.229Z,44.30
2019-04-21T14:47:00.608Z,44.30
2019-04-21T14:49:41.550Z,44.90
2019-04-21T14:52:14.992Z,45.80
2019-04-21T14:54:54.480Z,46.20
2019-04-21T14:57:23.590Z,45.70
2019-04-21T14:59:53.034Z,45.20
2019-04-21T15:02:22.275Z,45.90
2019-04-21T15:04:51.486Z,46.60
2019-04-21T15:07:21.335Z,47.00
2019-04-21T15:10:02.430Z,46.30
2019-04-21T15:12:23.621Z,46.00
2019-04-21T15:14:53.735Z,46.20
2019-04-21T15:17:24.374Z,46.10
2019-04-21T15:19:59.673Z,44.90
2019-04-21T15:22:24.061Z,44.30
2019-04-21T15:24:53.971Z,44.60
2019-04-21T15:27:23.095Z,44.90
2019-04-21T15:29:53.018Z,45.10
2019-04-21T15:32:22.293Z,45.40
2019-04-21T15:34:52.037Z,46.10
2019-04-21T15:37:22.019Z,45.80
2019-04-21T15:39:50.969Z,45.40
2019-04-21T15:42:20.791Z,45.10
2019-04-21T15:44:52.424Z,44.50
2019-04-21T15:47:19.960Z,44.30
2019-04-21T15:50:02.812Z,44.30
2019-04-21T15:52:27.723Z,44.20
2019-04-21T15:55:03.259Z,44.40
2019-04-21T15:57:49.847Z,44.50
2019-04-21T16:00:20.698Z,44.50
2019-04-21T16:02:50.828Z,43.50
2019-04-21T16:05:20.450Z,43.20
2019-04-21T16:07:49.873Z,43.30
2019-04-21T16:10:33.196Z,42.90
2019-04-21T16:12:49.927Z,42.60
2019-04-21T16:15:18.847Z,42.40
2019-04-21T16:17:47.670Z,42.20
2019-04-21T16:20:17.865Z,42.10
2019-04-21T16:22:46.498Z,41.70
2019-04-21T16:25:17.014Z,40.50
2019-04-21T16:27:45.674Z,39.90
2019-04-21T16:30:17.661Z,39.40
2019-04-21T16:32:47.883Z,39.40
2019-04-21T16:35:18.668Z,38.90
2019-04-21T16:37:47.782Z,38.80
2019-04-21T16:40:17.248Z,38.70
2019-04-21T16:42:45.935Z,38.70
2019-04-21T16:45:16.885Z,37.70
2019-04-21T16:47:47.484Z,37.20
2019-04-21T16:50:21.536Z,37.30
2019-04-21T16:53:08.142Z,37.30
2019-04-21T16:55:48.874Z,36.50
2019-04-21T16:58:36.714Z,35.60
2019-04-21T17:01:12.937Z,35.10
2019-04-21T17:03:39.867Z,35.50
2019-04-21T17:06:09.062Z,35.10
2019-04-21T17:08:38.745Z,34.70
2019-04-21T17:11:16.161Z,34.40
2019-04-21T17:13:38.284Z,34.70
2019-04-21T17:16:36.490Z,35.10
2019-04-21T17:18:51.371Z,35.50
2019-04-21T17:21:08.754Z,35.30
2019-04-21T17:23:37.705Z,34.70
2019-04-21T17:26:06.543Z,34.30
2019-04-21T17:28:36.340Z,33.70
2019-04-21T17:31:06.602Z,32.90
2019-04-21T17:33:35.565Z,31.80
2019-04-21T17:36:05.343Z,31.20
2019-04-21T17:38:34.226Z,30.50
2019-04-21T17:41:14.289Z,29.80
2019-04-21T17:43:33.891Z,28.80
2019-04-21T17:46:02.831Z,27.90
2019-04-21T17:48:32.404Z,27.20
2019-04-21T17:51:03.432Z,26.60
2019-04-21T17:53:40.221Z,26.10
2019-04-21T17:56:33.867Z,25.50
2019-04-21T17:58:59.872Z,25.00
2019-04-21T18:01:33.942Z,24.50
2019-04-21T18:04:04.935Z,24.10
2019-04-21T18:06:38.042Z,23.60
2019-04-21T18:09:20.455Z,23.30
2019-04-21T18:11:42.459Z,23.20
2019-04-21T18:13:49.557Z,23.00
2019-04-21T18:16:26.616Z,22.90
2019-04-21T18:18:48.743Z,22.70
2019-04-21T18:21:22.794Z,22.60
2019-04-21T18:24:04.915Z,22.30
2019-04-21T18:26:35.484Z,21.90
2019-04-21T18:28:56.888Z,21.60
2019-04-21T18:31:26.924Z,21.30
2019-04-21T18:34:02.164Z,21.20
2019-04-21T18:36:33.022Z,21.10
2019-04-21T18:39:16.793Z,21.00
2019-04-21T18:41:32.240Z,21.00
2019-04-21T18:44:32.147Z,20.80
2019-04-21T18:47:16.538Z,20.70
2019-04-21T18:49:33.310Z,20.60
2019-04-21T18:52:22.307Z,20.40
2019-04-21T18:54:59.894Z,20.20
2019-04-21T18:57:24.993Z,19.90
2019-04-21T18:59:49.099Z,19.60
2019-04-21T19:02:20.553Z,19.30
2019-04-21T19:04:48.412Z,18.90
2019-04-21T19:07:31.746Z,18.60
2019-04-21T19:13:03.649Z,18.30
2019-04-21T19:15:07.636Z,18.20
2019-04-21T19:22:38.710Z,18.10
2019-04-21T19:25:04.799Z,18.00
2019-04-21T19:27:40.210Z,17.90
2019-04-21T19:30:30.062Z,17.80
2019-04-21T19:32:33.607Z,17.60
2019-04-21T19:34:55.795Z,17.50
2019-04-21T19:37:25.772Z,17.30
2019-04-21T19:40:01.545Z,17.20
2019-04-21T19:42:34.606Z,17.00
2019-04-21T19:45:11.871Z,16.80
2019-04-21T19:47:45.104Z,16.70
2019-04-21T19:50:13.929Z,16.50
2019-04-21T19:52:36.995Z,16.40
2019-04-21T19:54:56.711Z,16.20
2019-04-21T19:57:25.240Z,16.10
2019-04-21T19:59:58.461Z,15.90
2019-04-21T20:02:26.660Z,15.80
2019-04-21T20:05:03.474Z,15.70
2019-04-21T20:07:43.832Z,15.60
2019-04-21T20:10:21.271Z,15.40
2019-04-21T20:12:47.433Z,15.20
2019-04-21T20:15:20.307Z,15.10
2019-04-21T20:17:42.333Z,14.90
2019-04-21T20:19:58.150Z,14.80
2019-04-21T20:22:32.882Z,14.60
2019-04-21T20:25:05.861Z,14.50
2019-04-21T20:27:38.497Z,14.40
2019-04-21T20:30:19.259Z,14.30
2019-04-21T20:32:52.781Z,14.30
2019-04-21T20:35:21.323Z,14.20
2019-04-21T20:37:49.649Z,14.10
2019-04-21T20:40:05.297Z,14.00
2019-04-21T20:42:42.639Z,13.80
2019-04-21T20:45:36.534Z,13.70
2019-04-21T20:47:37.627Z,13.70
2019-04-21T20:50:18.535Z,13.60
2019-04-21T20:52:53.832Z,13.60
2019-04-21T20:55:15.526Z,13.40
2019-04-21T20:57:50.628Z,13.30
2019-04-21T21:00:21.704Z,13.10
2019-04-21T21:02:55.432Z,12.90
2019-04-21T21:05:15.409Z,12.80
2019-04-21T21:08:14.974Z,12.80
2019-04-21T21:10:20.413Z,12.80
2019-04-21T21:12:59.744Z,12.70
2019-04-21T21:15:22.794Z,12.60
2019-04-21T21:18:01.544Z,12.60
2019-04-21T21:20:30.842Z,12.50
2019-04-21T21:22:56.243Z,12.50
2019-04-21T21:25:39.865Z,12.30
2019-04-21T21:27:51.793Z,12.30
2019-04-21T21:30:26.992Z,12.20
2019-04-21T21:33:05.160Z,12.10
2019-04-21T21:35:29.585Z,12.00
2019-04-21T21:38:06.727Z,11.80
2019-04-21T21:40:30.492Z,11.70
2019-04-21T21:42:48.090Z,11.70
2019-04-21T21:45:19.849Z,11.70
2019-04-21T21:48:08.673Z,11.60
2019-04-21T21:50:25.138Z,11.50
2019-04-21T21:52:59.966Z,11.50
2019-04-21T21:55:19.295Z,11.40
2019-04-21T21:57:52.954Z,11.40
2019-04-21T22:00:23.857Z,11.30
2019-04-21T22:02:56.564Z,11.20
2019-04-21T22:05:29.176Z,11.10
2019-04-21T22:07:54.616Z,11.10
2019-04-21T22:10:23.183Z,11.10
2019-04-21T22:12:59.811Z,11.00
2019-04-21T22:15:26.273Z,10.90
2019-04-21T22:18:14.696Z,10.80
2019-04-21T22:20:43.166Z,10.80
2019-04-21T22:22:59.403Z,10.70
2019-04-21T22:25:29.526Z,10.60
2019-04-21T22:27:53.922Z,10.60
2019-04-21T22:30:29.924Z,10.40
2019-04-21T22:33:00.139Z,10.30
2019-04-21T22:35:31.634Z,10.20
2019-04-21T22:38:10.666Z,10.20
2019-04-21T22:40:41.650Z,10.20
2019-04-21T22:43:04.442Z,10.10
2019-04-21T22:45:25.145Z,10.10
2019-04-21T22:47:56.279Z,10.10
2019-04-21T22:50:28.614Z,10.10
2019-04-21T22:53:02.062Z,10.10
2019-04-21T22:55:31.642Z,10.00
2019-04-21T22:58:00.309Z,10.00
2019-04-21T23:00:31.350Z,9.90
2019-04-21T23:03:05.303Z,9.80
2019-04-21T23:05:34.382Z,9.80
2019-04-21T23:08:03.431Z,9.80
2019-04-21T23:10:31.501Z,9.70
2019-04-21T23:13:05.729Z,9.70
2019-04-21T23:15:40.648Z,9.80
2019-04-21T23:18:22.005Z,9.80
2019-04-21T23:20:47.966Z,9.70
2019-04-21T23:23:26.432Z,9.70
2019-04-21T23:25:46.197Z,9.60
2019-04-21T23:28:15.842Z,9.50
2019-04-21T23:30:55.843Z,9.40
2019-04-21T23:33:06.500Z,9.30
2019-04-21T23:35:37.829Z,9.10
2019-04-21T23:38:05.366Z,9.00
2019-04-21T23:40:32.898Z,8.90
2019-04-21T23:43:09.633Z,8.90
2019-04-21T23:45:37.743Z,8.80
2019-04-21T23:48:20.485Z,8.80
2019-04-21T23:50:43.094Z,8.70
2019-04-21T23:53:03.451Z,8.70
2019-04-21T23:55:32.223Z,8.70
2019-04-21T23:58:06.977Z,8.60
